Chittagong, Bangladesh

12:43 AM BDT on July 25, 2014 (GMT +0600)
M.A. Hannan International (VGEG) Elev 13 ft | 22.27 °N, 91.82 °E | Change Station

Current weather conditions updated 53 minutes ago

Mostly Cloudy
Mostly Cloudy
81 °F
Feels Like 87 °F
N
6
Wind Variable Wind from SSE

Today is forecast to be nearly the same temperature as yesterday. Showers and thunderstorms.

Today
High -- | Low -- °F
--% Chance of Precip.
Yesterday
High -- | Low -- °F
Precip. -- in
5:21 AM 6:36 PM
Waning Crescent, 4% visible
Pressure 29.59 in
Visibility 3.1 miles
Clouds Scattered Clouds 1800 ft
Few 3000 ft
Mostly Cloudy 10000 ft
Heat Index 87 °F
Dew Point 77 °F
Humidity 89%
Rainfall 0.00 in
Snow Depth Not available.
UV 0 out of 12
Pollen Not available.
Air Quality Not available.
Flu Activity Not available.
METAR VGEG 241750Z 15005KT 5000 SCT018 FEW030CB BKN100 27/25 Q1002 NOSIG

More Conditions Fewer Conditions

Pressure 29.59 in
Visibility 3.1 miles
Clouds Scattered Clouds 1800 ft
Few 3000 ft
Mostly Cloudy 10000 ft
Heat Index 87 °F
Dew Point 77 °F
Humidity 89%
Rainfall 0.00 in
Snow Depth Not available.
UV 0 out of 12
Pollen Not available.
Air Quality Not available.
Flu Activity Not available.
METAR VGEG 241750Z 15005KT 5000 SCT018 FEW030CB BKN100 27/25 Q1002 NOSIG

More Conditions Fewer Conditions

10-Day Weather Forecast

Almanac

Astronomy

Jul. 25, 2014 Rise Set
Actual Time 5:21 AM BDT 6:36 PM BDT
Civil Twilight 4:57 AM BDT 7:00 PM BDT
Nautical Twilight 4:28 AM BDT 7:29 PM BDT
Astronomical Twilight 3:58 AM BDT 7:59 PM BDT
Moon 3:51 AM BDT (7/25) 5:17 PM BDT (7/25)
Length of Visible Light 14h 03m
Length of Day
13h 15m
Tomorrow will be 0m 51s shorter.
Waning Crescent, 4% of the Moon is Illuminated
Jul 24
Waning Crescent
Jul 26
New
Aug 3
First Quarter
Aug 10
Full
Aug 17
Last Quarter

Yesterday's Extremes

Country Highs Country Lows

Community

WunderPhotos

Upload Photos

1,737,091 photos uploaded!

Nearby

Snow Depth

Not available.

Earthquake Activity

City Distance Mag. Time & Date
No recent earthquake activity has been reported nearby.
Minimum magnitude displayed is 2.5.

Coastal Water Temperatures

Place Temperature
No Stations Reporting

Nearby Weather Stations

There are no personal weather stations in this area.